createdAt,value
2018-02-07T11:54:54.060Z,984.80
2018-02-07T11:56:02.966Z,984.77
2018-02-07T11:57:05.597Z,984.80
2018-02-07T12:00:13.062Z,984.79
2018-02-07T12:02:42.602Z,984.83
2018-02-07T12:03:42.593Z,984.75
2018-02-07T12:05:36.037Z,984.80
2018-02-07T12:06:35.977Z,984.78
2018-02-07T12:08:29.358Z,984.83
2018-02-07T12:09:29.366Z,984.77
2018-02-07T12:11:22.311Z,984.82
2018-02-07T12:12:22.247Z,984.80
2018-02-07T12:14:15.416Z,984.80
2018-02-07T12:15:15.404Z,984.81
2018-02-07T12:17:08.847Z,984.81
2018-02-07T12:18:08.868Z,984.81
2018-02-07T12:20:02.154Z,984.77
2018-02-07T12:21:02.155Z,984.74
2018-02-07T12:22:55.572Z,984.70
2018-02-07T12:23:55.526Z,984.72
2018-02-07T12:25:48.400Z,984.72
2018-02-07T12:26:48.386Z,984.70
2018-02-07T12:28:41.320Z,984.71
2018-02-07T12:29:41.261Z,984.68
2018-02-07T12:31:34.638Z,984.70
2018-02-07T12:32:34.631Z,984.70
2018-02-07T12:34:27.566Z,984.69
2018-02-07T12:35:27.501Z,984.68
2018-02-07T12:37:20.386Z,984.69
2018-02-07T12:38:20.392Z,984.67
2018-02-07T12:41:14.054Z,984.61
2018-02-07T12:43:06.941Z,984.58
2018-02-07T12:44:06.944Z,984.58
2018-02-07T12:46:00.343Z,984.50
2018-02-07T12:47:00.337Z,984.51
2018-02-07T12:48:53.680Z,984.47
2018-02-07T12:49:53.695Z,984.47
2018-02-07T12:51:46.843Z,984.55
2018-02-07T12:52:46.789Z,984.47
2018-02-07T12:54:39.953Z,984.48
2018-02-07T12:55:39.948Z,984.50
2018-02-07T12:57:33.666Z,984.47
2018-02-07T12:58:33.637Z,984.45
2018-02-07T13:00:26.494Z,984.46
2018-02-07T13:01:26.538Z,984.44
2018-02-07T13:03:19.917Z,984.45
2018-02-07T13:04:19.855Z,984.38
2018-02-07T13:06:12.798Z,984.40
2018-02-07T13:07:12.824Z,984.39
2018-02-07T13:09:06.742Z,984.36
2018-02-07T13:10:06.671Z,984.36
2018-02-07T13:12:00.039Z,984.40
2018-02-07T13:13:00.037Z,984.37
2018-02-07T13:14:54.488Z,984.36
2018-02-07T13:17:47.313Z,984.40
2018-02-07T13:18:47.284Z,984.41
2018-02-07T13:20:40.202Z,984.43
2018-02-07T13:21:40.152Z,984.46
2018-02-07T13:23:33.033Z,984.41
2018-02-07T13:24:33.021Z,984.39
2018-02-07T13:26:27.064Z,984.34
2018-02-07T13:27:26.866Z,984.36
2018-02-07T13:29:19.746Z,984.33
2018-02-07T13:30:19.732Z,984.32
2018-02-07T13:32:13.154Z,984.29
2018-02-07T13:33:13.105Z,984.31
2018-02-07T13:35:06.269Z,984.29
2018-02-07T13:36:06.261Z,984.29
2018-02-07T13:37:59.212Z,984.38
2018-02-07T13:38:59.164Z,984.37
2018-02-07T13:43:45.971Z,984.47
2018-02-07T13:44:46.096Z,984.43
2018-02-07T13:46:38.807Z,984.42
2018-02-07T13:47:38.795Z,984.41
2018-02-07T13:49:31.735Z,984.40
2018-02-07T13:50:31.693Z,984.40
2018-02-07T13:52:24.872Z,984.38
2018-02-07T13:53:24.875Z,984.36
2018-02-07T13:55:18.319Z,984.36
2018-02-07T13:59:04.079Z,984.36
2018-02-07T14:01:57.837Z,984.40
2018-02-07T14:04:51.100Z,984.45
2018-02-07T14:05:51.101Z,984.45
2018-02-07T14:07:44.022Z,984.48
2018-02-07T14:08:34.860Z,984.52
2018-02-07T14:09:34.886Z,984.49
